Tachikawa Air Base, Japan

3:59 PM JST on September 04, 2015 (GMT +0900)
ITOKYOHI1 | | Change Station
CLOSE
Current Station
Personal Weather Station
Location: %u65E5%u91CE%u5E02, %u6771%u4EAC%u90FD
Elevation: 282 ft
Nearby Weather Stations

Elev 282 ft 35.66 °N, 139.40 °E | Updated 2 seconds ago

Mostly Cloudy
Mostly Cloudy
81.0 °F
Feels Like 83 °F
N
2.5
Wind Variable Wind from SSW
Gusts 2.5 mph

Today
High -- | Low -- °F
--% Chance of Precip.
Yesterday
High -- | Low -- °F
Precip. -- in
5:16 AM 6:06 PM
Waning Gibbous, 62% visible
Pressure 29.71 in
Visibility 6.2 miles
Clouds Scattered Clouds 3000 ft
Few 3000 ft
Scattered Clouds 5000 ft
Mostly Cloudy 23000 ft
Heat Index 83 °F
Dew Point 67 °F
Humidity 62%
Rainfall 0.13 in
Snow Depth Not available.
UV 2 out of 12
Pollen Not available.
Air Quality Not available.
Flu Activity Not available.
SPECI RJTC 040613Z 11003KT 070V160 9999 SCT030 FEW030CB SCT050 BKN230 28/19 Q1006 RMK 3CU030 1CB030 3SC050 5CI230 A2973 CB 10KM E MOV E
Pressure 29.71 in
Visibility 6.2 miles
Clouds Scattered Clouds 3000 ft
Few 3000 ft
Scattered Clouds 5000 ft
Mostly Cloudy 23000 ft
Heat Index 83 °F
Dew Point 67 °F
Humidity 62%
Rainfall 0.13 in
Snow Depth Not available.
UV 2 out of 12
Pollen Not available.
Air Quality Not available.
Flu Activity Not available.
SPECI RJTC 040613Z 11003KT 070V160 9999 SCT030 FEW030CB SCT050 BKN230 28/19 Q1006 RMK 3CU030 1CB030 3SC050 5CI230 A2973 CB 10KM E MOV E

10-Day Weather Forecast

×

Almanac

Astronomy

Sep. 04, 2015 Rise Set
Actual Time
Civil Twilight
Nautical Twilight
Astronomical Twilight
Moon
Length of Visible Light
Length of Day
Tomorrow will be .
, % of the Moon is Illuminated

Today's Extremes

Country Highs Country Lows

Community

WunderPhotos

Upload Photos

1,852,132 photos uploaded!

WunderBlogs® & News

Nearby

Air Quality

  Air Quality AQ Index Pollutant
Not available.

Snow Depth

Station Depth Elevation

Earthquake Activity

City Distance Mag. Time & Date
Minimum magnitude displayed is 2.5.

Coastal Water Temperatures

Place Temperature

Stations

Nearby Weather Stations

Station Location Temp. Windchill Dew Point Humidity Wind Precip. Elev Updated Type